sensor_id;sensor_type;location;lat;lon;timestamp;P1;durP1;ratioP1;P2;durP2;ratioP2
8564;SDS011;4320;51.498;6.556;2023-02-13T00:00:07;32.80;;;16.83;;
8564;SDS011;4320;51.498;6.556;2023-02-13T00:02:35;25.27;;;15.10;;
8564;SDS011;4320;51.498;6.556;2023-02-13T00:05:01;21.08;;;12.88;;
8564;SDS011;4320;51.498;6.556;2023-02-13T00:07:27;21.73;;;13.00;;
8564;SDS011;4320;51.498;6.556;2023-02-13T00:09:52;20.98;;;12.43;;
8564;SDS011;4320;51.498;6.556;2023-02-13T00:12:18;24.58;;;12.95;;
8564;SDS011;4320;51.498;6.556;2023-02-13T00:14:43;25.65;;;13.73;;
8564;SDS011;4320;51.498;6.556;2023-02-13T00:17:09;22.33;;;13.32;;
8564;SDS011;4320;51.498;6.556;2023-02-13T00:19:34;21.05;;;13.13;;
8564;SDS011;4320;51.498;6.556;2023-02-13T00:22:00;21.65;;;12.55;;
8564;SDS011;4320;51.498;6.556;2023-02-13T00:24:26;17.52;;;11.43;;
8564;SDS011;4320;51.498;6.556;2023-02-13T00:26:51;17.63;;;11.07;;
8564;SDS011;4320;51.498;6.556;2023-02-13T00:29:17;18.30;;;10.75;;
8564;SDS011;4320;51.498;6.556;2023-02-13T00:31:42;17.13;;;10.50;;
8564;SDS011;4320;51.498;6.556;2023-02-13T00:34:08;18.13;;;11.10;;
8564;SDS011;4320;51.498;6.556;2023-02-13T00:36:34;15.98;;;10.88;;
8564;SDS011;4320;51.498;6.556;2023-02-13T00:38:59;17.77;;;10.57;;
8564;SDS011;4320;51.498;6.556;2023-02-13T00:41:28;14.13;;;9.65;;
8564;SDS011;4320;51.498;6.556;2023-02-13T00:43:54;13.15;;;8.65;;
8564;SDS011;4320;51.498;6.556;2023-02-13T00:46:20;14.52;;;8.45;;
8564;SDS011;4320;51.498;6.556;2023-02-13T00:48:45;13.38;;;9.23;;
8564;SDS011;4320;51.498;6.556;2023-02-13T00:51:11;10.98;;;7.38;;
8564;SDS011;4320;51.498;6.556;2023-02-13T00:53:37;11.85;;;7.68;;
8564;SDS011;4320;51.498;6.556;2023-02-13T00:56:03;11.88;;;7.53;;
8564;SDS011;4320;51.498;6.556;2023-02-13T00:58:30;9.73;;;7.47;;
8564;SDS011;4320;51.498;6.556;2023-02-13T01:00:56;11.38;;;7.25;;
8564;SDS011;4320;51.498;6.556;2023-02-13T01:03:22;11.63;;;7.20;;
8564;SDS011;4320;51.498;6.556;2023-02-13T01:05:48;10.95;;;7.80;;
8564;SDS011;4320;51.498;6.556;2023-02-13T01:08:14;11.32;;;7.80;;
8564;SDS011;4320;51.498;6.556;2023-02-13T01:10:41;10.40;;;7.50;;
8564;SDS011;4320;51.498;6.556;2023-02-13T01:13:08;10.35;;;7.50;;
8564;SDS011;4320;51.498;6.556;2023-02-13T01:15:34;12.55;;;7.45;;
8564;SDS011;4320;51.498;6.556;2023-02-13T01:18:00;10.68;;;7.45;;
8564;SDS011;4320;51.498;6.556;2023-02-13T01:20:26;11.98;;;8.05;;
8564;SDS011;4320;51.498;6.556;2023-02-13T01:22:53;11.70;;;7.53;;
8564;SDS011;4320;51.498;6.556;2023-02-13T01:25:19;14.07;;;7.28;;
8564;SDS011;4320;51.498;6.556;2023-02-13T01:27:45;12.70;;;7.45;;
8564;SDS011;4320;51.498;6.556;2023-02-13T01:30:11;10.63;;;7.53;;
8564;SDS011;4320;51.498;6.556;2023-02-13T01:32:39;11.60;;;7.90;;
8564;SDS011;4320;51.498;6.556;2023-02-13T01:35:06;10.48;;;7.63;;
8564;SDS011;4320;51.498;6.556;2023-02-13T01:37:33;10.85;;;7.38;;
8564;SDS011;4320;51.498;6.556;2023-02-13T01:39:58;11.30;;;7.80;;
8564;SDS011;4320;51.498;6.556;2023-02-13T01:42:25;12.95;;;7.80;;
8564;SDS011;4320;51.498;6.556;2023-02-13T01:44:59;11.13;;;7.40;;
8564;SDS011;4320;51.498;6.556;2023-02-13T01:47:43;10.95;;;7.75;;
8564;SDS011;4320;51.498;6.556;2023-02-13T01:50:13;10.88;;;8.02;;
8564;SDS011;4320;51.498;6.556;2023-02-13T01:52:46;13.30;;;7.80;;
8564;SDS011;4320;51.498;6.556;2023-02-13T01:55:18;10.95;;;7.68;;
8564;SDS011;4320;51.498;6.556;2023-02-13T01:57:45;12.50;;;8.18;;
8564;SDS011;4320;51.498;6.556;2023-02-13T02:00:17;14.02;;;8.73;;
8564;SDS011;4320;51.498;6.556;2023-02-13T02:02:44;12.43;;;8.27;;
8564;SDS011;4320;51.498;6.556;2023-02-13T02:05:15;13.27;;;8.40;;
8564;SDS011;4320;51.498;6.556;2023-02-13T02:07:42;13.07;;;7.95;;
8564;SDS011;4320;51.498;6.556;2023-02-13T02:10:10;15.65;;;8.93;;
8564;SDS011;4320;51.498;6.556;2023-02-13T02:12:49;13.80;;;8.88;;
8564;SDS011;4320;51.498;6.556;2023-02-13T02:15:30;14.27;;;9.20;;
8564;SDS011;4320;51.498;6.556;2023-02-13T02:17:56;16.52;;;9.90;;
8564;SDS011;4320;51.498;6.556;2023-02-13T02:29:17;21.60;;;11.57;;
8564;SDS011;4320;51.498;6.556;2023-02-13T02:32:17;19.20;;;11.25;;
8564;SDS011;4320;51.498;6.556;2023-02-13T02:48:12;15.98;;;10.32;;
8564;SDS011;4320;51.498;6.556;2023-02-13T02:51:37;14.48;;;10.27;;
8564;SDS011;4320;51.498;6.556;2023-02-13T02:54:15;17.77;;;10.85;;
8564;SDS011;4320;51.498;6.556;2023-02-13T02:57:09;17.60;;;10.80;;
8564;SDS011;4320;51.498;6.556;2023-02-13T02:59:40;16.63;;;10.82;;
8564;SDS011;4320;51.498;6.556;2023-02-13T03:02:27;17.98;;;11.25;;
8564;SDS011;4320;51.498;6.556;2023-02-13T03:05:18;18.27;;;11.13;;
8564;SDS011;4320;51.498;6.556;2023-02-13T03:08:06;15.18;;;9.95;;
8564;SDS011;4320;51.498;6.556;2023-02-13T03:10:33;17.65;;;11.02;;
8564;SDS011;4320;51.498;6.556;2023-02-13T03:16:09;15.95;;;10.57;;
8564;SDS011;4320;51.498;6.556;2023-02-13T03:18:57;18.85;;;10.23;;
8564;SDS011;4320;51.498;6.556;2023-02-13T03:24:37;15.02;;;9.70;;
8564;SDS011;4320;51.498;6.556;2023-02-13T03:30:08;16.33;;;10.23;;
8564;SDS011;4320;51.498;6.556;2023-02-13T03:35:34;15.25;;;10.38;;
8564;SDS011;4320;51.498;6.556;2023-02-13T03:41:19;16.70;;;10.13;;
8564;SDS011;4320;51.498;6.556;2023-02-13T03:43:55;15.32;;;10.23;;
8564;SDS011;4320;51.498;6.556;2023-02-13T03:46:23;13.88;;;9.00;;
8564;SDS011;4320;51.498;6.556;2023-02-13T03:48:51;18.38;;;11.25;;
8564;SDS011;4320;51.498;6.556;2023-02-13T03:51:38;16.67;;;10.80;;
8564;SDS011;4320;51.498;6.556;2023-02-13T03:54:14;17.52;;;10.70;;
8564;SDS011;4320;51.498;6.556;2023-02-13T03:56:44;20.30;;;10.20;;
8564;SDS011;4320;51.498;6.556;2023-02-13T03:59:33;16.38;;;10.50;;
8564;SDS011;4320;51.498;6.556;2023-02-13T04:02:13;16.27;;;10.35;;
8564;SDS011;4320;51.498;6.556;2023-02-13T04:07:41;15.77;;;10.50;;
8564;SDS011;4320;51.498;6.556;2023-02-13T04:10:10;16.58;;;10.23;;
8564;SDS011;4320;51.498;6.556;2023-02-13T04:12:45;15.38;;;9.95;;
8564;SDS011;4320;51.498;6.556;2023-02-13T04:15:33;17.40;;;9.85;;
8564;SDS011;4320;51.498;6.556;2023-02-13T04:18:06;15.82;;;9.95;;
8564;SDS011;4320;51.498;6.556;2023-02-13T04:20:44;15.00;;;9.98;;
8564;SDS011;4320;51.498;6.556;2023-02-13T04:23:10;16.40;;;10.10;;
8564;SDS011;4320;51.498;6.556;2023-02-13T04:25:37;16.17;;;10.02;;
8564;SDS011;4320;51.498;6.556;2023-02-13T04:28:05;17.15;;;9.90;;
8564;SDS011;4320;51.498;6.556;2023-02-13T04:30:30;15.43;;;9.35;;
8564;SDS011;4320;51.498;6.556;2023-02-13T04:32:56;17.65;;;10.15;;
8564;SDS011;4320;51.498;6.556;2023-02-13T04:35:22;16.58;;;9.93;;
8564;SDS011;4320;51.498;6.556;2023-02-13T04:37:48;14.00;;;9.23;;
8564;SDS011;4320;51.498;6.556;2023-02-13T04:40:13;14.48;;;9.18;;
8564;SDS011;4320;51.498;6.556;2023-02-13T04:42:39;15.18;;;9.25;;
8564;SDS011;4320;51.498;6.556;2023-02-13T04:45:05;12.88;;;8.00;;
8564;SDS011;4320;51.498;6.556;2023-02-13T04:47:30;13.27;;;9.15;;
8564;SDS011;4320;51.498;6.556;2023-02-13T04:49:56;14.30;;;8.68;;
8564;SDS011;4320;51.498;6.556;2023-02-13T04:52:22;13.80;;;9.38;;
8564;SDS011;4320;51.498;6.556;2023-02-13T04:54:47;14.82;;;9.90;;
8564;SDS011;4320;51.498;6.556;2023-02-13T04:57:13;15.43;;;9.43;;
8564;SDS011;4320;51.498;6.556;2023-02-13T04:59:39;14.57;;;9.95;;
8564;SDS011;4320;51.498;6.556;2023-02-13T05:02:05;16.55;;;10.23;;
8564;SDS011;4320;51.498;6.556;2023-02-13T05:04:31;18.20;;;11.05;;
8564;SDS011;4320;51.498;6.556;2023-02-13T05:06:57;15.65;;;9.88;;
8564;SDS011;4320;51.498;6.556;2023-02-13T05:09:23;20.20;;;11.48;;
8564;SDS011;4320;51.498;6.556;2023-02-13T05:11:52;17.95;;;10.57;;
8564;SDS011;4320;51.498;6.556;2023-02-13T05:14:18;19.67;;;11.30;;
8564;SDS011;4320;51.498;6.556;2023-02-13T05:16:44;20.00;;;12.18;;
8564;SDS011;4320;51.498;6.556;2023-02-13T05:19:09;16.80;;;10.68;;
8564;SDS011;4320;51.498;6.556;2023-02-13T05:21:35;19.45;;;12.10;;
8564;SDS011;4320;51.498;6.556;2023-02-13T05:24:19;15.77;;;11.05;;
8564;SDS011;4320;51.498;6.556;2023-02-13T05:26:45;18.02;;;11.38;;
8564;SDS011;4320;51.498;6.556;2023-02-13T05:29:10;18.90;;;11.15;;
8564;SDS011;4320;51.498;6.556;2023-02-13T05:31:52;18.15;;;11.30;;
8564;SDS011;4320;51.498;6.556;2023-02-13T05:34:20;16.02;;;10.75;;
8564;SDS011;4320;51.498;6.556;2023-02-13T05:36:47;16.13;;;11.15;;
8564;SDS011;4320;51.498;6.556;2023-02-13T05:39:13;17.80;;;11.65;;
8564;SDS011;4320;51.498;6.556;2023-02-13T05:41:39;16.13;;;11.05;;
8564;SDS011;4320;51.498;6.556;2023-02-13T05:44:06;17.70;;;10.27;;
8564;SDS011;4320;51.498;6.556;2023-02-13T05:46:31;16.98;;;11.48;;
8564;SDS011;4320;51.498;6.556;2023-02-13T05:48:57;17.73;;;11.40;;
8564;SDS011;4320;51.498;6.556;2023-02-13T05:51:23;17.35;;;11.55;;
8564;SDS011;4320;51.498;6.556;2023-02-13T05:53:48;19.65;;;10.82;;
8564;SDS011;4320;51.498;6.556;2023-02-13T05:56:14;17.67;;;11.38;;
8564;SDS011;4320;51.498;6.556;2023-02-13T05:58:40;17.45;;;11.15;;
8564;SDS011;4320;51.498;6.556;2023-02-13T06:01:05;17.45;;;11.27;;
8564;SDS011;4320;51.498;6.556;2023-02-13T06:03:31;16.35;;;11.00;;
8564;SDS011;4320;51.498;6.556;2023-02-13T06:05:58;17.15;;;11.15;;
8564;SDS011;4320;51.498;6.556;2023-02-13T06:08:24;18.35;;;11.43;;
8564;SDS011;4320;51.498;6.556;2023-02-13T06:10:50;18.15;;;11.32;;
8564;SDS011;4320;51.498;6.556;2023-02-13T06:13:16;16.63;;;11.82;;
8564;SDS011;4320;51.498;6.556;2023-02-13T06:15:42;18.80;;;12.18;;
8564;SDS011;4320;51.498;6.556;2023-02-13T06:18:07;17.30;;;11.52;;
8564;SDS011;4320;51.498;6.556;2023-02-13T06:20:33;20.08;;;12.93;;
8564;SDS011;4320;51.498;6.556;2023-02-13T06:22:59;20.80;;;13.25;;
8564;SDS011;4320;51.498;6.556;2023-02-13T06:25:25;25.25;;;13.35;;
8564;SDS011;4320;51.498;6.556;2023-02-13T06:27:51;18.98;;;12.07;;
8564;SDS011;4320;51.498;6.556;2023-02-13T06:30:17;20.13;;;12.65;;
8564;SDS011;4320;51.498;6.556;2023-02-13T06:32:45;17.63;;;11.55;;
8564;SDS011;4320;51.498;6.556;2023-02-13T06:35:11;19.70;;;11.30;;
8564;SDS011;4320;51.498;6.556;2023-02-13T06:37:37;19.27;;;12.63;;
8564;SDS011;4320;51.498;6.556;2023-02-13T06:40:04;19.27;;;11.85;;
8564;SDS011;4320;51.498;6.556;2023-02-13T06:42:33;20.88;;;12.35;;
8564;SDS011;4320;51.498;6.556;2023-02-13T06:44:58;23.67;;;15.50;;
8564;SDS011;4320;51.498;6.556;2023-02-13T06:47:25;20.48;;;13.13;;
8564;SDS011;4320;51.498;6.556;2023-02-13T06:49:51;22.02;;;13.43;;
8564;SDS011;4320;51.498;6.556;2023-02-13T06:52:16;20.50;;;13.32;;
8564;SDS011;4320;51.498;6.556;2023-02-13T06:54:42;21.88;;;12.68;;
8564;SDS011;4320;51.498;6.556;2023-02-13T06:57:07;16.88;;;11.63;;
8564;SDS011;4320;51.498;6.556;2023-02-13T06:59:33;21.48;;;12.40;;
8564;SDS011;4320;51.498;6.556;2023-02-13T07:01:59;21.80;;;13.25;;
8564;SDS011;4320;51.498;6.556;2023-02-13T07:04:24;22.77;;;12.65;;
8564;SDS011;4320;51.498;6.556;2023-02-13T07:06:53;20.40;;;12.27;;
8564;SDS011;4320;51.498;6.556;2023-02-13T07:09:20;21.20;;;12.53;;
8564;SDS011;4320;51.498;6.556;2023-02-13T07:11:47;21.42;;;12.48;;
8564;SDS011;4320;51.498;6.556;2023-02-13T07:14:12;19.60;;;11.00;;
8564;SDS011;4320;51.498;6.556;2023-02-13T07:16:38;18.15;;;11.85;;
8564;SDS011;4320;51.498;6.556;2023-02-13T07:19:03;18.27;;;11.77;;
8564;SDS011;4320;51.498;6.556;2023-02-13T07:21:29;18.98;;;11.98;;
8564;SDS011;4320;51.498;6.556;2023-02-13T07:23:55;20.98;;;11.75;;
8564;SDS011;4320;51.498;6.556;2023-02-13T07:26:20;19.03;;;12.47;;
8564;SDS011;4320;51.498;6.556;2023-02-13T07:28:46;19.20;;;12.90;;
8564;SDS011;4320;51.498;6.556;2023-02-13T07:31:11;20.13;;;12.35;;
8564;SDS011;4320;51.498;6.556;2023-02-13T07:33:37;20.63;;;13.02;;
8564;SDS011;4320;51.498;6.556;2023-02-13T07:36:03;21.55;;;13.80;;
8564;SDS011;4320;51.498;6.556;2023-02-13T07:38:29;19.23;;;12.63;;
8564;SDS011;4320;51.498;6.556;2023-02-13T07:40:59;24.50;;;12.88;;
8564;SDS011;4320;51.498;6.556;2023-02-13T07:43:25;21.15;;;13.60;;
8564;SDS011;4320;51.498;6.556;2023-02-13T07:45:51;21.73;;;12.68;;
8564;SDS011;4320;51.498;6.556;2023-02-13T07:48:23;20.85;;;12.10;;
8564;SDS011;4320;51.498;6.556;2023-02-13T07:50:51;17.77;;;12.32;;
8564;SDS011;4320;51.498;6.556;2023-02-13T07:53:17;19.05;;;11.77;;
8564;SDS011;4320;51.498;6.556;2023-02-13T07:55:42;16.90;;;11.07;;
8564;SDS011;4320;51.498;6.556;2023-02-13T07:58:08;18.23;;;11.38;;
8564;SDS011;4320;51.498;6.556;2023-02-13T08:00:33;15.23;;;10.90;;
8564;SDS011;4320;51.498;6.556;2023-02-13T08:02:59;18.95;;;11.93;;
8564;SDS011;4320;51.498;6.556;2023-02-13T08:05:26;12.95;;;9.98;;
8564;SDS011;4320;51.498;6.556;2023-02-13T08:07:52;13.48;;;10.68;;
8564;SDS011;4320;51.498;6.556;2023-02-13T08:10:18;16.85;;;11.02;;
8564;SDS011;4320;51.498;6.556;2023-02-13T08:13:03;13.15;;;9.90;;
8564;SDS011;4320;51.498;6.556;2023-02-13T08:15:30;14.07;;;10.80;;
8564;SDS011;4320;51.498;6.556;2023-02-13T08:17:57;17.15;;;10.73;;
8564;SDS011;4320;51.498;6.556;2023-02-13T08:20:22;12.43;;;10.68;;
8564;SDS011;4320;51.498;6.556;2023-02-13T08:22:48;14.13;;;10.13;;
8564;SDS011;4320;51.498;6.556;2023-02-13T08:25:14;13.48;;;10.20;;
8564;SDS011;4320;51.498;6.556;2023-02-13T08:27:40;13.82;;;10.82;;
8564;SDS011;4320;51.498;6.556;2023-02-13T08:30:06;13.90;;;10.68;;
8564;SDS011;4320;51.498;6.556;2023-02-13T08:32:33;14.15;;;9.52;;
8564;SDS011;4320;51.498;6.556;2023-02-13T08:34:58;12.85;;;9.52;;
8564;SDS011;4320;51.498;6.556;2023-02-13T08:37:24;12.43;;;9.25;;
8564;SDS011;4320;51.498;6.556;2023-02-13T08:39:49;14.10;;;10.18;;
8564;SDS011;4320;51.498;6.556;2023-02-13T08:42:15;13.02;;;9.85;;
8564;SDS011;4320;51.498;6.556;2023-02-13T08:44:41;14.02;;;10.15;;
8564;SDS011;4320;51.498;6.556;2023-02-13T08:47:07;13.65;;;9.65;;
8564;SDS011;4320;51.498;6.556;2023-02-13T08:49:33;12.10;;;9.77;;
8564;SDS011;4320;51.498;6.556;2023-02-13T08:52:00;14.98;;;11.18;;
8564;SDS011;4320;51.498;6.556;2023-02-13T08:54:26;13.25;;;10.10;;
8564;SDS011;4320;51.498;6.556;2023-02-13T08:56:52;14.50;;;10.70;;
8564;SDS011;4320;51.498;6.556;2023-02-13T08:59:18;13.60;;;10.82;;
8564;SDS011;4320;51.498;6.556;2023-02-13T09:01:44;16.70;;;11.10;;
8564;SDS011;4320;51.498;6.556;2023-02-13T09:04:09;13.70;;;10.52;;
8564;SDS011;4320;51.498;6.556;2023-02-13T09:06:35;11.98;;;9.90;;
8564;SDS011;4320;51.498;6.556;2023-02-13T09:09:01;14.82;;;10.50;;
8564;SDS011;4320;51.498;6.556;2023-02-13T09:11:28;13.52;;;10.13;;
8564;SDS011;4320;51.498;6.556;2023-02-13T09:13:54;16.77;;;11.10;;
8564;SDS011;4320;51.498;6.556;2023-02-13T09:16:20;15.80;;;10.75;;
8564;SDS011;4320;51.498;6.556;2023-02-13T09:18:46;14.85;;;10.27;;
8564;SDS011;4320;51.498;6.556;2023-02-13T09:21:13;16.92;;;11.20;;
8564;SDS011;4320;51.498;6.556;2023-02-13T09:23:39;18.42;;;10.70;;
8564;SDS011;4320;51.498;6.556;2023-02-13T09:26:07;17.77;;;11.27;;
8564;SDS011;4320;51.498;6.556;2023-02-13T09:28:37;13.38;;;10.20;;
8564;SDS011;4320;51.498;6.556;2023-02-13T09:31:13;15.63;;;10.02;;
8564;SDS011;4320;51.498;6.556;2023-02-13T09:33:41;15.65;;;11.32;;
8564;SDS011;4320;51.498;6.556;2023-02-13T09:36:10;16.48;;;10.45;;
8564;SDS011;4320;51.498;6.556;2023-02-13T09:38:43;15.50;;;9.77;;
8564;SDS011;4320;51.498;6.556;2023-02-13T09:46:17;12.77;;;9.63;;
8564;SDS011;4320;51.498;6.556;2023-02-13T09:48:48;12.65;;;9.70;;
8564;SDS011;4320;51.498;6.556;2023-02-13T09:51:18;9.82;;;8.35;;
8564;SDS011;4320;51.498;6.556;2023-02-13T09:53:47;13.10;;;9.13;;
8564;SDS011;4320;51.498;6.556;2023-02-13T09:59:38;12.52;;;9.20;;
8564;SDS011;4320;51.498;6.556;2023-02-13T10:10:51;11.23;;;8.82;;
8564;SDS011;4320;51.498;6.556;2023-02-13T10:18:37;12.00;;;10.27;;
8564;SDS011;4320;51.498;6.556;2023-02-13T10:21:23;11.35;;;10.15;;
8564;SDS011;4320;51.498;6.556;2023-02-13T10:26:26;12.43;;;10.27;;
8564;SDS011;4320;51.498;6.556;2023-02-13T10:29:52;21.65;;;10.23;;
8564;SDS011;4320;51.498;6.556;2023-02-13T10:32:24;13.45;;;9.70;;
8564;SDS011;4320;51.498;6.556;2023-02-13T10:34:56;13.45;;;9.80;;
8564;SDS011;4320;51.498;6.556;2023-02-13T10:37:26;15.15;;;9.68;;
8564;SDS011;4320;51.498;6.556;2023-02-13T10:39:52;51.15;;;43.10;;
8564;SDS011;4320;51.498;6.556;2023-02-13T10:42:24;17.25;;;10.90;;
8564;SDS011;4320;51.498;6.556;2023-02-13T10:45:37;15.55;;;12.88;;
8564;SDS011;4320;51.498;6.556;2023-02-13T10:48:25;12.95;;;9.63;;
8564;SDS011;4320;51.498;6.556;2023-02-13T10:56:38;12.68;;;9.60;;
8564;SDS011;4320;51.498;6.556;2023-02-13T11:02:14;12.60;;;9.32;;
8564;SDS011;4320;51.498;6.556;2023-02-13T11:04:59;13.18;;;10.35;;
8564;SDS011;4320;51.498;6.556;2023-02-13T11:07:29;17.73;;;9.80;;
8564;SDS011;4320;51.498;6.556;2023-02-13T11:09:57;16.90;;;10.13;;
8564;SDS011;4320;51.498;6.556;2023-02-13T11:12:29;15.65;;;10.52;;
8564;SDS011;4320;51.498;6.556;2023-02-13T11:14:57;13.88;;;10.50;;
8564;SDS011;4320;51.498;6.556;2023-02-13T11:17:26;12.63;;;9.80;;
8564;SDS011;4320;51.498;6.556;2023-02-13T11:19:56;14.73;;;10.85;;
8564;SDS011;4320;51.498;6.556;2023-02-13T11:22:29;17.40;;;10.52;;
8564;SDS011;4320;51.498;6.556;2023-02-13T11:25:20;14.82;;;10.23;;
8564;SDS011;4320;51.498;6.556;2023-02-13T11:27:48;13.50;;;10.32;;
8564;SDS011;4320;51.498;6.556;2023-02-13T11:32:55;16.58;;;10.30;;
8564;SDS011;4320;51.498;6.556;2023-02-13T11:35:29;15.38;;;10.60;;
8564;SDS011;4320;51.498;6.556;2023-02-13T11:40:34;17.27;;;11.60;;
8564;SDS011;4320;51.498;6.556;2023-02-13T11:43:01;21.98;;;14.60;;
8564;SDS011;4320;51.498;6.556;2023-02-13T11:45:30;11.13;;;9.48;;
8564;SDS011;4320;51.498;6.556;2023-02-13T11:47:56;11.57;;;8.70;;
8564;SDS011;4320;51.498;6.556;2023-02-13T11:50:29;15.18;;;10.77;;
8564;SDS011;4320;51.498;6.556;2023-02-13T11:53:00;14.25;;;9.70;;
8564;SDS011;4320;51.498;6.556;2023-02-13T11:58:00;11.90;;;9.60;;
8564;SDS011;4320;51.498;6.556;2023-02-13T12:00:32;15.68;;;10.60;;
8564;SDS011;4320;51.498;6.556;2023-02-13T12:08:39;13.45;;;9.13;;
8564;SDS011;4320;51.498;6.556;2023-02-13T12:11:15;14.93;;;9.63;;
8564;SDS011;4320;51.498;6.556;2023-02-13T12:13:43;14.18;;;8.98;;
8564;SDS011;4320;51.498;6.556;2023-02-13T12:16:11;14.52;;;9.75;;
8564;SDS011;4320;51.498;6.556;2023-02-13T12:18:45;13.18;;;9.68;;
8564;SDS011;4320;51.498;6.556;2023-02-13T12:24:33;12.68;;;9.05;;
8564;SDS011;4320;51.498;6.556;2023-02-13T12:35:31;14.02;;;9.10;;
8564;SDS011;4320;51.498;6.556;2023-02-13T12:41:17;12.52;;;8.20;;
8564;SDS011;4320;51.498;6.556;2023-02-13T12:43:56;10.43;;;7.53;;
8564;SDS011;4320;51.498;6.556;2023-02-13T13:09:27;12.93;;;7.80;;
8564;SDS011;4320;51.498;6.556;2023-02-13T13:12:31;13.23;;;8.25;;
8564;SDS011;4320;51.498;6.556;2023-02-13T13:15:16;11.20;;;7.88;;
8564;SDS011;4320;51.498;6.556;2023-02-13T13:18:01;11.48;;;7.53;;
8564;SDS011;4320;51.498;6.556;2023-02-13T13:20:45;9.60;;;7.25;;
8564;SDS011;4320;51.498;6.556;2023-02-13T13:23:30;11.32;;;7.97;;
8564;SDS011;4320;51.498;6.556;2023-02-13T13:26:07;10.18;;;7.70;;
8564;SDS011;4320;51.498;6.556;2023-02-13T13:28:42;16.88;;;7.88;;
8564;SDS011;4320;51.498;6.556;2023-02-13T13:31:10;13.32;;;8.45;;
8564;SDS011;4320;51.498;6.556;2023-02-13T13:33:43;10.38;;;7.95;;
8564;SDS011;4320;51.498;6.556;2023-02-13T13:36:13;10.15;;;7.63;;
8564;SDS011;4320;51.498;6.556;2023-02-13T13:50:20;13.13;;;7.43;;
8564;SDS011;4320;51.498;6.556;2023-02-13T13:58:23;10.55;;;7.82;;
8564;SDS011;4320;51.498;6.556;2023-02-13T14:01:55;15.15;;;9.00;;
8564;SDS011;4320;51.498;6.556;2023-02-13T14:04:00;11.63;;;7.18;;
8564;SDS011;4320;51.498;6.556;2023-02-13T14:09:35;13.57;;;7.32;;
8564;SDS011;4320;51.498;6.556;2023-02-13T14:14:52;13.98;;;8.43;;
8564;SDS011;4320;51.498;6.556;2023-02-13T14:20:27;14.15;;;8.30;;
8564;SDS011;4320;51.498;6.556;2023-02-13T14:23:46;13.68;;;8.43;;
8564;SDS011;4320;51.498;6.556;2023-02-13T14:31:35;12.75;;;8.00;;
8564;SDS011;4320;51.498;6.556;2023-02-13T14:36:33;22.27;;;8.73;;
8564;SDS011;4320;51.498;6.556;2023-02-13T14:39:03;19.20;;;9.10;;
8564;SDS011;4320;51.498;6.556;2023-02-13T14:44:21;12.65;;;8.23;;
8564;SDS011;4320;51.498;6.556;2023-02-13T14:47:12;15.18;;;8.05;;
8564;SDS011;4320;51.498;6.556;2023-02-13T14:49:59;14.15;;;8.57;;
8564;SDS011;4320;51.498;6.556;2023-02-13T14:52:34;11.98;;;8.00;;
8564;SDS011;4320;51.498;6.556;2023-02-13T14:55:07;12.02;;;7.63;;
8564;SDS011;4320;51.498;6.556;2023-02-13T14:57:48;13.30;;;7.13;;
8564;SDS011;4320;51.498;6.556;2023-02-13T15:00:30;13.50;;;7.93;;
8564;SDS011;4320;51.498;6.556;2023-02-13T15:06:03;11.40;;;7.80;;
8564;SDS011;4320;51.498;6.556;2023-02-13T15:08:39;13.68;;;8.02;;
8564;SDS011;4320;51.498;6.556;2023-02-13T15:11:10;13.32;;;8.18;;
8564;SDS011;4320;51.498;6.556;2023-02-13T15:14:13;13.05;;;7.70;;
8564;SDS011;4320;51.498;6.556;2023-02-13T15:17:15;13.07;;;7.63;;
8564;SDS011;4320;51.498;6.556;2023-02-13T15:19:49;11.73;;;7.70;;
8564;SDS011;4320;51.498;6.556;2023-02-13T15:22:20;12.95;;;7.72;;
8564;SDS011;4320;51.498;6.556;2023-02-13T15:24:55;13.75;;;8.00;;
8564;SDS011;4320;51.498;6.556;2023-02-13T15:27:29;10.45;;;7.70;;
8564;SDS011;4320;51.498;6.556;2023-02-13T15:29:58;12.07;;;7.97;;
8564;SDS011;4320;51.498;6.556;2023-02-13T15:32:44;12.55;;;8.05;;
8564;SDS011;4320;51.498;6.556;2023-02-13T15:35:23;12.40;;;8.18;;
8564;SDS011;4320;51.498;6.556;2023-02-13T15:37:55;11.48;;;7.50;;
8564;SDS011;4320;51.498;6.556;2023-02-13T15:40:25;15.65;;;7.50;;
8564;SDS011;4320;51.498;6.556;2023-02-13T15:42:56;12.77;;;7.75;;
8564;SDS011;4320;51.498;6.556;2023-02-13T15:45:23;13.18;;;7.75;;
8564;SDS011;4320;51.498;6.556;2023-02-13T15:47:50;11.80;;;7.30;;
8564;SDS011;4320;51.498;6.556;2023-02-13T15:50:26;18.55;;;8.52;;
8564;SDS011;4320;51.498;6.556;2023-02-13T15:52:58;14.38;;;7.72;;
8564;SDS011;4320;51.498;6.556;2023-02-13T15:55:28;12.27;;;7.55;;
8564;SDS011;4320;51.498;6.556;2023-02-13T15:57:59;14.77;;;8.20;;
8564;SDS011;4320;51.498;6.556;2023-02-13T16:00:27;14.20;;;7.93;;
8564;SDS011;4320;51.498;6.556;2023-02-13T16:02:58;15.73;;;9.18;;
8564;SDS011;4320;51.498;6.556;2023-02-13T16:05:26;15.45;;;8.65;;
8564;SDS011;4320;51.498;6.556;2023-02-13T16:07:56;14.15;;;9.30;;
8564;SDS011;4320;51.498;6.556;2023-02-13T16:10:30;13.18;;;9.15;;
8564;SDS011;4320;51.498;6.556;2023-02-13T16:13:02;13.30;;;8.63;;
8564;SDS011;4320;51.498;6.556;2023-02-13T16:15:31;14.85;;;7.78;;
8564;SDS011;4320;51.498;6.556;2023-02-13T16:17:59;15.60;;;8.55;;
8564;SDS011;4320;51.498;6.556;2023-02-13T16:20:28;14.65;;;8.02;;
8564;SDS011;4320;51.498;6.556;2023-02-13T16:23:00;15.85;;;8.40;;
8564;SDS011;4320;51.498;6.556;2023-02-13T16:25:30;12.57;;;7.97;;
8564;SDS011;4320;51.498;6.556;2023-02-13T16:27:58;13.23;;;8.43;;
8564;SDS011;4320;51.498;6.556;2023-02-13T16:40:54;9.95;;;7.35;;
8564;SDS011;4320;51.498;6.556;2023-02-13T16:43:41;16.15;;;8.77;;
8564;SDS011;4320;51.498;6.556;2023-02-13T16:48:44;14.20;;;9.07;;
8564;SDS011;4320;51.498;6.556;2023-02-13T16:54:01;14.68;;;9.45;;
8564;SDS011;4320;51.498;6.556;2023-02-13T17:04:32;17.15;;;10.02;;
8564;SDS011;4320;51.498;6.556;2023-02-13T17:06:59;13.50;;;9.48;;
8564;SDS011;4320;51.498;6.556;2023-02-13T17:09:24;18.63;;;10.23;;
8564;SDS011;4320;51.498;6.556;2023-02-13T17:11:50;17.25;;;9.80;;
8564;SDS011;4320;51.498;6.556;2023-02-13T17:14:17;13.15;;;8.40;;
8564;SDS011;4320;51.498;6.556;2023-02-13T17:16:44;13.15;;;9.20;;
8564;SDS011;4320;51.498;6.556;2023-02-13T17:19:10;17.58;;;10.75;;
8564;SDS011;4320;51.498;6.556;2023-02-13T17:21:36;24.00;;;12.75;;
8564;SDS011;4320;51.498;6.556;2023-02-13T17:24:02;28.20;;;13.50;;
8564;SDS011;4320;51.498;6.556;2023-02-13T17:26:29;20.02;;;13.13;;
8564;SDS011;4320;51.498;6.556;2023-02-13T17:28:55;20.27;;;12.60;;
8564;SDS011;4320;51.498;6.556;2023-02-13T17:31:20;24.13;;;13.40;;
8564;SDS011;4320;51.498;6.556;2023-02-13T17:33:46;20.30;;;12.93;;
8564;SDS011;4320;51.498;6.556;2023-02-13T17:36:12;19.33;;;11.55;;
8564;SDS011;4320;51.498;6.556;2023-02-13T17:38:38;27.35;;;12.80;;
8564;SDS011;4320;51.498;6.556;2023-02-13T17:41:13;20.20;;;12.18;;
8564;SDS011;4320;51.498;6.556;2023-02-13T17:43:40;18.10;;;12.00;;
8564;SDS011;4320;51.498;6.556;2023-02-13T17:46:06;17.75;;;11.00;;
8564;SDS011;4320;51.498;6.556;2023-02-13T17:48:32;24.33;;;12.70;;
8564;SDS011;4320;51.498;6.556;2023-02-13T17:50:58;18.95;;;12.30;;
8564;SDS011;4320;51.498;6.556;2023-02-13T17:53:27;22.75;;;13.38;;
8564;SDS011;4320;51.498;6.556;2023-02-13T17:55:56;19.50;;;13.57;;
8564;SDS011;4320;51.498;6.556;2023-02-13T17:58:23;23.08;;;14.18;;
8564;SDS011;4320;51.498;6.556;2023-02-13T18:00:48;25.33;;;15.43;;
8564;SDS011;4320;51.498;6.556;2023-02-13T18:03:14;25.17;;;14.70;;
8564;SDS011;4320;51.498;6.556;2023-02-13T18:05:40;25.13;;;15.15;;
8564;SDS011;4320;51.498;6.556;2023-02-13T18:08:06;27.38;;;15.05;;
8564;SDS011;4320;51.498;6.556;2023-02-13T18:10:33;23.50;;;14.75;;
8564;SDS011;4320;51.498;6.556;2023-02-13T18:13:01;25.05;;;15.68;;
8564;SDS011;4320;51.498;6.556;2023-02-13T18:15:41;20.73;;;14.00;;
8564;SDS011;4320;51.498;6.556;2023-02-13T18:18:08;29.63;;;14.95;;
8564;SDS011;4320;51.498;6.556;2023-02-13T18:20:35;26.73;;;14.93;;